createdAt,value
2023-01-05T00:00:08.600Z,11.14
2023-01-05T00:02:40.903Z,11.10
2023-01-05T00:05:07.504Z,11.10
2023-01-05T00:07:33.834Z,11.10
2023-01-05T00:10:00.162Z,11.07
2023-01-05T00:12:45.132Z,11.07
2023-01-05T00:15:30.005Z,11.03
2023-01-05T00:18:14.623Z,11.01
2023-01-05T00:20:59.455Z,10.98
2023-01-05T00:23:25.828Z,10.96
2023-01-05T00:25:52.171Z,10.89
2023-01-05T00:28:18.525Z,10.92
2023-01-05T00:30:46.770Z,10.92
2023-01-05T00:33:17.285Z,10.83
2023-01-05T00:35:43.857Z,10.85
2023-01-05T00:38:10.556Z,10.80
2023-01-05T00:40:38.470Z,10.78
2023-01-05T00:43:04.891Z,10.77
2023-01-05T00:45:31.371Z,10.74
2023-01-05T00:47:57.830Z,10.66
2023-01-05T00:50:24.287Z,10.68
2023-01-05T00:52:50.877Z,10.62
2023-01-05T00:55:17.528Z,10.59
2023-01-05T00:57:43.981Z,10.57
2023-01-05T01:00:15.039Z,10.56
2023-01-05T01:02:41.455Z,10.54
2023-01-05T01:05:08.197Z,10.50
2023-01-05T01:07:34.564Z,10.52
2023-01-05T01:10:00.900Z,10.61
2023-01-05T01:12:27.267Z,10.57
2023-01-05T01:14:53.670Z,10.53
2023-01-05T01:17:20.125Z,10.52
2023-01-05T01:19:46.576Z,10.53
2023-01-05T01:22:13.904Z,10.53
2023-01-05T01:24:40.457Z,10.51
2023-01-05T01:27:06.921Z,10.52
2023-01-05T01:29:33.415Z,10.51
2023-01-05T01:31:59.936Z,10.54
2023-01-05T01:34:26.546Z,10.50
2023-01-05T01:36:55.167Z,10.52
2023-01-05T01:39:24.106Z,10.53
2023-01-05T01:41:55.911Z,10.50
2023-01-05T01:44:53.491Z,10.49
2023-01-05T01:47:29.767Z,10.51
2023-01-05T01:49:58.849Z,10.49
2023-01-05T01:52:29.290Z,10.53
2023-01-05T01:54:56.949Z,10.54
2023-01-05T01:57:26.470Z,10.56
2023-01-05T01:59:53.006Z,10.52
2023-01-05T02:02:21.653Z,10.54
2023-01-05T02:04:48.898Z,10.57
2023-01-05T02:07:16.196Z,10.61
2023-01-05T02:09:43.814Z,10.57
2023-01-05T02:12:27.386Z,10.56
2023-01-05T02:15:09.192Z,10.56
2023-01-05T02:18:08.691Z,10.51
2023-01-05T02:21:08.031Z,10.48
2023-01-05T02:24:18.015Z,10.47
2023-01-05T02:27:15.252Z,10.47
2023-01-05T02:30:16.284Z,10.47
2023-01-05T02:33:07.995Z,10.40
2023-01-05T02:35:51.086Z,10.37
2023-01-05T02:38:40.522Z,10.36
2023-01-05T02:41:20.644Z,10.39
2023-01-05T02:43:47.117Z,10.38
2023-01-05T02:46:13.491Z,10.32
2023-01-05T02:48:41.889Z,10.37
2023-01-05T02:51:16.176Z,10.35
2023-01-05T02:54:09.448Z,10.34
2023-01-05T02:56:43.858Z,10.30
2023-01-05T02:59:20.632Z,10.30
2023-01-05T03:01:55.066Z,10.29
2023-01-05T03:04:32.798Z,10.29
2023-01-05T03:07:05.806Z,10.27
2023-01-05T03:09:37.921Z,10.29
2023-01-05T03:12:34.973Z,10.27
2023-01-05T03:15:20.799Z,10.25
2023-01-05T03:17:51.079Z,10.26
2023-01-05T03:20:23.079Z,10.23
2023-01-05T03:23:09.795Z,10.16
2023-01-05T03:25:58.348Z,10.12
2023-01-05T03:28:56.200Z,10.13
2023-01-05T03:31:59.210Z,10.09
2023-01-05T03:34:59.685Z,10.09
2023-01-05T03:37:35.377Z,10.11
2023-01-05T03:40:04.944Z,10.12
2023-01-05T03:42:35.272Z,10.10
2023-01-05T03:45:02.341Z,10.08
2023-01-05T03:47:28.746Z,9.98
2023-01-05T03:49:56.090Z,9.92
2023-01-05T03:52:22.684Z,9.90
2023-01-05T03:54:49.727Z,9.95
2023-01-05T03:57:16.122Z,9.94
2023-01-05T03:59:43.754Z,9.90
2023-01-05T04:02:10.226Z,9.84
2023-01-05T04:04:36.884Z,9.80
2023-01-05T04:07:07.340Z,9.82
2023-01-05T04:09:34.522Z,9.77
2023-01-05T04:12:01.756Z,9.72
2023-01-05T04:14:32.756Z,9.68
2023-01-05T04:16:59.680Z,9.69
2023-01-05T04:19:26.931Z,9.71
2023-01-05T04:21:54.832Z,9.73
2023-01-05T04:24:23.043Z,9.72
2023-01-05T04:26:49.657Z,9.72
2023-01-05T04:29:18.725Z,9.71
2023-01-05T04:31:48.533Z,9.72
2023-01-05T04:34:14.886Z,9.71
2023-01-05T04:36:43.040Z,9.73
2023-01-05T04:39:14.486Z,9.73
2023-01-05T04:41:41.716Z,9.73
2023-01-05T04:44:08.312Z,9.73
2023-01-05T04:46:35.307Z,9.72
2023-01-05T04:49:03.068Z,9.72
2023-01-05T04:51:29.567Z,9.74
2023-01-05T04:53:55.980Z,9.74
2023-01-05T04:56:24.285Z,9.73
2023-01-05T04:58:50.696Z,9.71
2023-01-05T05:01:18.474Z,9.70
2023-01-05T05:03:49.791Z,9.72
2023-01-05T05:06:19.290Z,9.70
2023-01-05T05:08:47.762Z,9.68
2023-01-05T05:11:14.573Z,9.72
2023-01-05T05:13:41.601Z,9.73
2023-01-05T05:16:08.412Z,9.73
2023-01-05T05:18:35.166Z,9.72
2023-01-05T05:21:03.468Z,9.70
2023-01-05T05:23:33.190Z,9.63
2023-01-05T05:26:00.143Z,9.57
2023-01-05T05:28:28.253Z,9.57
2023-01-05T05:30:56.172Z,9.48
2023-01-05T05:33:23.949Z,9.41
2023-01-05T05:35:50.914Z,9.37
2023-01-05T05:38:17.262Z,9.41
2023-01-05T05:40:43.614Z,9.38
2023-01-05T05:43:10.095Z,9.35
2023-01-05T05:45:36.445Z,9.41
2023-01-05T05:48:02.925Z,9.41
2023-01-05T05:50:29.340Z,9.42
2023-01-05T05:52:55.661Z,9.37
2023-01-05T05:55:22.056Z,9.38
2023-01-05T05:57:48.426Z,9.30
2023-01-05T06:00:15.276Z,9.30
2023-01-05T06:02:41.710Z,9.27
2023-01-05T06:05:08.764Z,9.24
2023-01-05T06:07:35.134Z,9.20
2023-01-05T06:10:01.457Z,9.20
2023-01-05T06:12:27.930Z,9.21
2023-01-05T06:14:54.317Z,9.21
2023-01-05T06:17:20.651Z,9.21
2023-01-05T06:19:47.002Z,9.25
2023-01-05T06:22:13.362Z,9.20
2023-01-05T06:24:39.909Z,9.20
2023-01-05T06:27:06.272Z,9.17
2023-01-05T06:29:32.603Z,9.15
2023-01-05T06:31:58.984Z,9.19
2023-01-05T06:34:25.345Z,9.15
2023-01-05T06:36:51.705Z,9.16
2023-01-05T06:39:18.118Z,9.13
2023-01-05T06:41:44.614Z,9.12
2023-01-05T06:44:11.188Z,9.11
2023-01-05T06:46:37.569Z,9.17
2023-01-05T06:49:03.961Z,9.18
2023-01-05T06:51:30.431Z,9.19
2023-01-05T06:53:56.842Z,9.14
2023-01-05T06:56:23.262Z,9.14
2023-01-05T06:58:49.611Z,9.19
2023-01-05T07:01:16.065Z,9.19
2023-01-05T07:03:42.522Z,9.14
2023-01-05T07:06:14.609Z,9.15
2023-01-05T07:08:41.802Z,9.12
2023-01-05T07:11:08.323Z,9.15
2023-01-05T07:13:34.819Z,9.12
2023-01-05T07:16:01.233Z,9.13
2023-01-05T07:18:27.644Z,9.15
2023-01-05T07:20:54.036Z,9.14
2023-01-05T07:23:20.438Z,9.13
2023-01-05T07:25:46.803Z,9.17
2023-01-05T07:28:13.785Z,9.16
2023-01-05T07:30:40.140Z,9.18
2023-01-05T07:33:06.587Z,9.25
2023-01-05T07:35:33.057Z,9.15
2023-01-05T07:37:59.415Z,9.19
2023-01-05T07:40:25.864Z,9.16
2023-01-05T07:42:53.346Z,9.16
2023-01-05T07:45:20.918Z,9.17
2023-01-05T07:47:47.286Z,9.17
2023-01-05T07:50:13.729Z,9.20
2023-01-05T07:52:40.137Z,9.20
2023-01-05T07:55:06.977Z,9.22
2023-01-05T07:57:33.417Z,9.22
2023-01-05T07:59:59.793Z,9.23
2023-01-05T08:02:32.228Z,9.25
2023-01-05T08:05:02.202Z,9.29
2023-01-05T08:07:28.571Z,9.30
2023-01-05T08:10:13.658Z,9.30
2023-01-05T08:13:00.037Z,9.26
2023-01-05T08:15:26.602Z,9.26
2023-01-05T08:17:52.956Z,9.28
2023-01-05T08:20:19.433Z,9.33
2023-01-05T08:22:51.036Z,9.33
2023-01-05T08:25:17.579Z,9.31
2023-01-05T08:27:44.085Z,9.34
2023-01-05T08:30:13.328Z,9.39
2023-01-05T08:32:40.822Z,9.39
2023-01-05T08:35:07.560Z,9.38
2023-01-05T08:37:33.933Z,9.42
2023-01-05T08:40:00.355Z,9.41
2023-01-05T08:42:26.725Z,9.39
2023-01-05T08:44:53.121Z,9.40
2023-01-05T08:47:20.161Z,9.41
2023-01-05T08:49:47.301Z,9.45
2023-01-05T08:52:13.693Z,9.50
2023-01-05T08:54:40.085Z,9.49
2023-01-05T08:57:06.461Z,9.51
2023-01-05T08:59:32.840Z,9.51
2023-01-05T09:01:59.543Z,9.52
2023-01-05T09:04:27.576Z,9.58
2023-01-05T09:06:54.365Z,9.57
2023-01-05T09:09:24.172Z,9.58
2023-01-05T09:11:50.756Z,9.60
2023-01-05T09:14:17.427Z,9.62
2023-01-05T09:19:30.468Z,9.65
2023-01-05T09:21:56.921Z,9.60
2023-01-05T09:24:23.483Z,9.66
2023-01-05T09:26:50.426Z,9.70
2023-01-05T09:29:16.965Z,9.69
2023-01-05T09:31:43.870Z,9.69
2023-01-05T09:34:10.955Z,9.73
2023-01-05T09:36:38.870Z,9.74
2023-01-05T09:39:06.276Z,9.77
2023-01-05T09:41:47.387Z,9.79
2023-01-05T09:44:35.223Z,9.77
2023-01-05T09:47:15.205Z,9.80
2023-01-05T09:49:42.070Z,9.81
2023-01-05T09:52:10.558Z,9.79
2023-01-05T09:54:38.638Z,9.81
2023-01-05T09:57:09.483Z,9.86
2023-01-05T09:59:40.578Z,9.86
2023-01-05T10:02:19.135Z,9.90
2023-01-05T10:04:47.578Z,9.86
2023-01-05T10:07:27.002Z,9.90
2023-01-05T10:09:58.098Z,9.93
2023-01-05T10:12:53.259Z,9.90
2023-01-05T10:15:21.564Z,9.94
2023-01-05T10:17:48.388Z,9.90
2023-01-05T10:20:28.028Z,9.89
2023-01-05T10:23:18.511Z,9.90
2023-01-05T10:25:54.007Z,9.96
2023-01-05T10:28:51.208Z,9.95
2023-01-05T10:31:47.353Z,9.99
2023-01-05T10:34:22.641Z,9.98
2023-01-05T10:37:10.478Z,9.98
2023-01-05T10:40:00.750Z,10.08
2023-01-05T10:42:45.472Z,10.06
2023-01-05T10:45:15.291Z,10.11
2023-01-05T10:47:44.939Z,10.08
2023-01-05T10:50:40.553Z,10.01
2023-01-05T10:53:14.675Z,10.08
2023-01-05T10:55:51.337Z,10.13
2023-01-05T10:58:22.863Z,10.06
2023-01-05T11:00:50.119Z,10.07
2023-01-05T11:03:18.836Z,10.14
2023-01-05T11:05:48.068Z,10.15
2023-01-05T11:08:21.086Z,10.16
2023-01-05T11:10:57.791Z,10.20
2023-01-05T11:13:42.463Z,10.15
2023-01-05T11:16:21.317Z,10.19
2023-01-05T11:18:52.273Z,10.18
2023-01-05T11:21:41.419Z,10.24
2023-01-05T11:24:25.525Z,10.26
2023-01-05T11:26:56.534Z,10.31
2023-01-05T11:29:22.945Z,10.28
2023-01-05T11:32:01.395Z,10.29
2023-01-05T11:34:49.054Z,10.35
2023-01-05T11:37:25.196Z,10.32
2023-01-05T11:40:02.836Z,10.35
2023-01-05T11:42:32.856Z,10.37
2023-01-05T11:45:07.417Z,10.37
2023-01-05T11:47:43.508Z,10.39
2023-01-05T11:50:13.629Z,10.40
2023-01-05T11:52:49.872Z,10.36
2023-01-05T11:55:33.547Z,10.39
2023-01-05T11:58:17.651Z,10.37
2023-01-05T12:01:10.050Z,10.36
2023-01-05T12:03:59.266Z,10.34
2023-01-05T12:06:34.481Z,10.27
2023-01-05T12:09:19.736Z,10.32
2023-01-05T12:11:58.773Z,10.32
2023-01-05T12:14:56.002Z,10.27
2023-01-05T12:18:03.770Z,10.32
2023-01-05T12:20:42.311Z,10.36
2023-01-05T12:23:19.290Z,10.40
2023-01-05T12:26:13.568Z,10.39
2023-01-05T12:35:44.895Z,10.45
2023-01-05T12:38:33.130Z,10.46
2023-01-05T12:41:23.248Z,10.49
2023-01-05T12:44:14.268Z,10.52
2023-01-05T12:47:05.354Z,10.53
2023-01-05T12:50:05.074Z,10.59
2023-01-05T12:52:36.773Z,10.61
2023-01-05T12:55:18.084Z,10.66
2023-01-05T12:57:54.066Z,10.70
2023-01-05T13:00:21.401Z,10.68
2023-01-05T13:03:01.809Z,10.72
2023-01-05T13:05:43.079Z,10.74
2023-01-05T13:08:29.255Z,10.75
2023-01-05T13:11:16.136Z,10.62
2023-01-05T13:13:52.701Z,10.72
2023-01-05T13:16:23.415Z,10.66
2023-01-05T13:19:02.209Z,10.61
2023-01-05T13:21:29.253Z,10.65
2023-01-05T13:24:01.614Z,10.75
2023-01-05T13:26:35.769Z,10.78
2023-01-05T13:29:04.461Z,10.80
2023-01-05T13:31:45.003Z,10.73
2023-01-05T13:34:25.603Z,10.72
2023-01-05T13:37:30.499Z,10.69
2023-01-05T13:40:18.433Z,10.61
2023-01-05T13:42:47.790Z,10.60
2023-01-05T13:45:41.400Z,10.63
2023-01-05T13:48:44.561Z,10.61
2023-01-05T13:51:19.772Z,10.61
2023-01-05T13:53:48.245Z,10.58
2023-01-05T13:56:19.641Z,10.61
2023-01-05T13:58:50.450Z,10.64
2023-01-05T14:01:34.192Z,10.63
2023-01-05T14:04:01.315Z,10.62
2023-01-05T14:06:34.497Z,10.67
2023-01-05T14:09:14.813Z,10.62
2023-01-05T14:12:16.016Z,10.71
2023-01-05T14:15:00.487Z,10.70
2023-01-05T14:17:50.670Z,10.71
2023-01-05T14:20:31.189Z,10.76
2023-01-05T14:22:58.303Z,10.70
2023-01-05T14:25:50.157Z,10.69
2023-01-05T14:28:30.533Z,10.64
2023-01-05T14:31:16.157Z,10.65
2023-01-05T14:33:57.713Z,10.66
2023-01-05T14:36:52.841Z,10.61
2023-01-05T14:39:20.048Z,10.60
2023-01-05T14:42:16.154Z,10.57
2023-01-05T14:44:49.491Z,10.60
2023-01-05T14:47:17.604Z,10.59
2023-01-05T14:49:55.677Z,10.54
2023-01-05T14:52:53.158Z,10.50
2023-01-05T14:55:41.964Z,10.45
2023-01-05T14:58:35.624Z,10.43
2023-01-05T15:01:17.322Z,10.40
2023-01-05T15:04:08.401Z,10.34
2023-01-05T15:06:34.690Z,10.38
2023-01-05T15:09:25.612Z,10.41
2023-01-05T15:12:13.496Z,10.36
2023-01-05T15:14:45.855Z,10.30
2023-01-05T15:17:50.259Z,10.33
2023-01-05T15:20:46.064Z,10.30
2023-01-05T15:26:27.938Z,10.23
2023-01-05T15:29:28.292Z,10.20
2023-01-05T15:32:03.141Z,10.20
2023-01-05T15:34:38.104Z,10.23
2023-01-05T15:37:28.965Z,10.26
2023-01-05T15:39:57.115Z,10.26
2023-01-05T15:42:28.494Z,10.21
2023-01-05T15:44:56.827Z,10.16
2023-01-05T15:47:26.946Z,10.23
2023-01-05T15:49:58.464Z,10.23
2023-01-05T15:52:32.236Z,10.19
2023-01-05T15:55:11.768Z,10.21
2023-01-05T15:57:38.090Z,10.19
2023-01-05T16:00:18.243Z,10.18
2023-01-05T16:02:44.933Z,10.26
2023-01-05T16:05:23.143Z,10.28
2023-01-05T16:08:18.479Z,10.26
2023-01-05T16:10:53.630Z,10.25
2023-01-05T16:13:25.923Z,10.24
2023-01-05T16:15:55.707Z,10.29
2023-01-05T16:18:27.132Z,10.26
2023-01-05T16:20:55.864Z,10.17
2023-01-05T16:23:38.968Z,10.14
2023-01-05T16:26:06.503Z,10.14
2023-01-05T16:28:32.925Z,10.05
2023-01-05T16:30:59.333Z,10.04
2023-01-05T16:33:38.384Z,10.04
2023-01-05T16:36:22.074Z,10.07
2023-01-05T16:38:48.917Z,10.07
2023-01-05T16:41:24.138Z,10.01
2023-01-05T16:44:03.064Z,10.01
2023-01-05T16:46:33.238Z,9.99
2023-01-05T16:49:33.864Z,9.98
2023-01-05T16:52:01.132Z,9.92
2023-01-05T16:54:36.852Z,9.99
2023-01-05T16:57:31.853Z,9.98
2023-01-05T16:59:58.430Z,9.93
2023-01-05T17:02:45.346Z,10.00
2023-01-05T17:05:15.416Z,9.92
2023-01-05T17:07:43.887Z,9.96
2023-01-05T17:10:20.853Z,9.90
2023-01-05T17:13:05.577Z,9.82
2023-01-05T17:15:36.192Z,9.76
2023-01-05T17:20:54.999Z,9.80
2023-01-05T17:23:23.639Z,9.77
2023-01-05T17:28:24.413Z,9.77
2023-01-05T17:30:51.731Z,9.70
2023-01-05T17:33:18.429Z,9.72
2023-01-05T17:38:14.804Z,9.67
2023-01-05T17:40:41.483Z,9.64
2023-01-05T17:43:07.910Z,9.66
2023-01-05T17:45:37.740Z,9.70
2023-01-05T17:48:04.271Z,9.66
2023-01-05T17:53:04.592Z,9.62
2023-01-05T17:55:31.625Z,9.64
2023-01-05T17:57:59.490Z,9.64
2023-01-05T18:00:27.605Z,9.68
2023-01-05T18:02:54.809Z,9.68
2023-01-05T18:05:21.802Z,9.67
2023-01-05T18:07:49.151Z,9.68
2023-01-05T18:10:19.238Z,9.71
2023-01-05T18:12:45.763Z,9.71
2023-01-05T18:15:13.192Z,9.71
2023-01-05T18:17:40.316Z,9.67
2023-01-05T18:20:07.393Z,9.65
2023-01-05T18:22:33.920Z,9.65
2023-01-05T18:25:00.353Z,9.73
2023-01-05T18:27:26.684Z,9.72
2023-01-05T18:29:56.596Z,9.72
2023-01-05T18:32:23.708Z,9.66
2023-01-05T18:34:50.065Z,9.64
2023-01-05T18:37:23.331Z,9.67
2023-01-05T18:39:49.917Z,9.66
2023-01-05T18:42:16.381Z,9.68
2023-01-05T18:44:42.720Z,9.64
2023-01-05T18:47:09.194Z,9.66
2023-01-05T18:49:35.631Z,9.61
2023-01-05T18:52:05.257Z,9.55
2023-01-05T18:54:31.687Z,9.61
2023-01-05T18:56:58.062Z,9.60
2023-01-05T18:59:25.401Z,9.70
2023-01-05T19:01:51.872Z,9.62
2023-01-05T19:04:18.599Z,9.65
2023-01-05T19:06:44.970Z,9.70
2023-01-05T19:09:12.955Z,9.69
2023-01-05T19:11:44.370Z,9.73
2023-01-05T19:14:10.904Z,9.70
2023-01-05T19:16:37.535Z,9.71
2023-01-05T19:19:08.316Z,9.78
2023-01-05T19:21:37.647Z,9.72
2023-01-05T19:24:06.489Z,9.73
2023-01-05T19:26:33.833Z,9.72
2023-01-05T19:29:02.331Z,9.70
2023-01-05T19:31:29.745Z,9.75
2023-01-05T19:33:58.843Z,9.71
2023-01-05T19:36:32.215Z,9.72
2023-01-05T19:39:03.906Z,9.71
2023-01-05T19:41:30.897Z,9.76
2023-01-05T19:43:57.774Z,9.76
2023-01-05T19:46:27.038Z,9.85
2023-01-05T19:48:54.133Z,9.81
2023-01-05T19:51:23.268Z,9.85
2023-01-05T19:53:57.869Z,9.87
2023-01-05T19:56:31.212Z,9.86
2023-01-05T19:59:00.062Z,9.92
2023-01-05T20:01:28.573Z,9.94
2023-01-05T20:03:55.877Z,9.91
2023-01-05T20:06:23.504Z,9.96
2023-01-05T20:08:54.617Z,9.95
2023-01-05T20:11:39.417Z,9.94
2023-01-05T20:14:13.511Z,9.97
2023-01-05T20:16:41.548Z,9.98
2023-01-05T20:19:08.974Z,9.98
2023-01-05T20:21:35.433Z,10.01
2023-01-05T20:24:03.264Z,9.98
2023-01-05T20:26:31.135Z,10.02
2023-01-05T20:29:01.262Z,10.01
2023-01-05T20:31:34.813Z,10.08
2023-01-05T20:34:05.622Z,10.05
2023-01-05T20:36:32.058Z,10.15
2023-01-05T20:38:59.064Z,10.18
2023-01-05T20:41:29.038Z,10.22
2023-01-05T20:43:56.575Z,10.27
2023-01-05T20:46:30.157Z,10.27
2023-01-05T20:48:57.218Z,10.29
2023-01-05T20:51:24.595Z,10.33
2023-01-05T20:53:52.794Z,10.35
2023-01-05T20:56:26.530Z,10.34
2023-01-05T20:58:54.076Z,10.40
2023-01-05T21:01:21.961Z,10.41
2023-01-05T21:03:49.947Z,10.46
2023-01-05T21:06:17.742Z,10.41
2023-01-05T21:08:49.053Z,10.42
2023-01-05T21:11:17.541Z,10.40
2023-01-05T21:13:49.370Z,10.41
2023-01-05T21:16:19.496Z,10.47
2023-01-05T21:18:46.688Z,10.42
2023-01-05T21:21:18.686Z,10.42
2023-01-05T21:23:47.287Z,10.46
2023-01-05T21:26:14.692Z,10.46
2023-01-05T21:28:43.565Z,10.43
2023-01-05T21:31:14.195Z,10.45
2023-01-05T21:33:41.246Z,10.41
2023-01-05T21:36:12.501Z,10.43
2023-01-05T21:39:02.298Z,10.43
2023-01-05T21:41:44.042Z,10.40
2023-01-05T21:44:12.195Z,10.41
2023-01-05T21:46:39.761Z,10.52
2023-01-05T21:49:07.626Z,10.38
2023-01-05T21:51:52.412Z,10.12
2023-01-05T21:54:38.152Z,10.06
2023-01-05T21:57:04.584Z,9.95
2023-01-05T21:59:31.202Z,9.88
2023-01-05T22:01:57.577Z,9.88
2023-01-05T22:04:23.993Z,9.80
2023-01-05T22:06:50.991Z,9.74
2023-01-05T22:09:17.999Z,9.68
2023-01-05T22:11:44.536Z,9.69
2023-01-05T22:14:11.166Z,9.67
2023-01-05T22:16:37.636Z,9.64
2023-01-05T22:19:04.167Z,9.62
2023-01-05T22:21:31.279Z,9.59
2023-01-05T22:23:58.016Z,9.58
2023-01-05T22:26:24.819Z,9.57
2023-01-05T22:28:51.906Z,9.59
2023-01-05T22:31:24.412Z,9.53
2023-01-05T22:33:53.063Z,9.52
2023-01-05T22:36:20.939Z,9.54
2023-01-05T22:38:49.087Z,9.53
2023-01-05T22:41:19.084Z,9.58
2023-01-05T22:43:46.138Z,9.58
2023-01-05T22:46:24.559Z,9.66
2023-01-05T22:48:53.036Z,9.59
2023-01-05T22:51:25.862Z,9.56
2023-01-05T22:53:52.633Z,9.60
2023-01-05T22:56:21.103Z,9.72
2023-01-05T22:58:48.363Z,9.74
2023-01-05T23:01:29.370Z,9.70
2023-01-05T23:03:58.363Z,9.71
2023-01-05T23:06:26.101Z,9.75
2023-01-05T23:08:53.631Z,9.78
2023-01-05T23:11:22.729Z,9.79
2023-01-05T23:13:50.641Z,9.75
2023-01-05T23:16:17.454Z,9.80
2023-01-05T23:18:44.695Z,9.78
2023-01-05T23:21:12.981Z,9.77
2023-01-05T23:23:40.250Z,9.82
2023-01-05T23:26:08.947Z,9.83
2023-01-05T23:28:35.624Z,9.87
2023-01-05T23:31:02.050Z,9.97
2023-01-05T23:33:31.322Z,10.02
2023-01-05T23:35:57.730Z,10.06
2023-01-05T23:38:25.248Z,10.16
2023-01-05T23:40:55.539Z,10.15
2023-01-05T23:43:28.317Z,10.17
2023-01-05T23:46:04.091Z,10.18
2023-01-05T23:48:30.669Z,10.18
2023-01-05T23:50:58.005Z,10.17
2023-01-05T23:53:25.666Z,10.12
2023-01-05T23:55:52.653Z,10.24
2023-01-05T23:58:19.049Z,10.20
